Roundhead, Ohio
Current Conditions -  °F | °C
As of 12:53 AM on Sunday 21 Dec 2014 (Local Time) from KAOH Reporting Station
Haze Haze  
Wind Chill: -3°   Ceiling: 2800
Heat Index: -1°   Visibility: 4mi
Dew Point: -4°   Wind: 5mph
Humidity: 79%   Direction: 220°SW
Pressure: 30.27"   Gusts: NA
Location:  40.56°N, 83.84°W
Report Text: KAOH 210553Z AUTO 22004KT 4SM HZ BKN028 M01/M04 A3027 RMK AO2 SLP261 T10061039 10006 21006 53000
Loading
Personal Weather Stations






























Interactive Weather Map New forecast layout! Learn more

10-Day Weather Forecast

Advertisements
Track Severe Weather on mobile